sensor_id;sensor_type;location;lat;lon;timestamp;P1;durP1;ratioP1;P2;durP2;ratioP2
6223;SDS011;3145;42.726;23.342;2023-03-16T00:02:16;4.10;;;3.90;;
6223;SDS011;3145;42.726;23.342;2023-03-16T00:04:43;6.27;;;5.97;;
6223;SDS011;3145;42.726;23.342;2023-03-16T00:07:11;5.50;;;5.30;;
6223;SDS011;3145;42.726;23.342;2023-03-16T00:09:39;3.90;;;3.70;;
6223;SDS011;3145;42.726;23.342;2023-03-16T00:12:09;5.10;;;4.90;;
6223;SDS011;3145;42.726;23.342;2023-03-16T00:14:40;4.10;;;3.70;;
6223;SDS011;3145;42.726;23.342;2023-03-16T00:17:08;4.10;;;3.90;;
6223;SDS011;3145;42.726;23.342;2023-03-16T00:19:42;4.90;;;4.70;;
6223;SDS011;3145;42.726;23.342;2023-03-16T00:22:10;5.13;;;4.83;;
6223;SDS011;3145;42.726;23.342;2023-03-16T00:24:38;4.20;;;3.97;;
6223;SDS011;3145;42.726;23.342;2023-03-16T00:27:08;4.13;;;3.80;;
6223;SDS011;3145;42.726;23.342;2023-03-16T00:29:39;4.50;;;4.30;;
6223;SDS011;3145;42.726;23.342;2023-03-16T00:32:11;5.07;;;4.67;;
6223;SDS011;3145;42.726;23.342;2023-03-16T00:34:38;4.57;;;4.27;;
6223;SDS011;3145;42.726;23.342;2023-03-16T00:37:05;4.40;;;4.20;;
6223;SDS011;3145;42.726;23.342;2023-03-16T00:39:32;4.77;;;4.47;;
6223;SDS011;3145;42.726;23.342;2023-03-16T00:41:59;6.80;;;6.40;;
6223;SDS011;3145;42.726;23.342;2023-03-16T00:44:28;4.40;;;4.20;;
6223;SDS011;3145;42.726;23.342;2023-03-16T00:46:55;4.70;;;4.50;;
6223;SDS011;3145;42.726;23.342;2023-03-16T00:49:22;4.63;;;4.33;;
6223;SDS011;3145;42.726;23.342;2023-03-16T00:51:49;4.73;;;4.50;;
6223;SDS011;3145;42.726;23.342;2023-03-16T00:54:15;4.90;;;4.70;;
6223;SDS011;3145;42.726;23.342;2023-03-16T00:56:44;5.60;;;5.30;;
6223;SDS011;3145;42.726;23.342;2023-03-16T00:59:10;4.43;;;4.23;;
6223;SDS011;3145;42.726;23.342;2023-03-16T01:01:39;6.63;;;6.30;;
6223;SDS011;3145;42.726;23.342;2023-03-16T01:04:05;4.40;;;4.20;;
6223;SDS011;3145;42.726;23.342;2023-03-16T01:06:33;4.77;;;4.37;;
6223;SDS011;3145;42.726;23.342;2023-03-16T01:09:00;4.03;;;3.83;;
6223;SDS011;3145;42.726;23.342;2023-03-16T01:11:30;3.93;;;3.80;;
6223;SDS011;3145;42.726;23.342;2023-03-16T01:13:58;3.90;;;3.80;;
6223;SDS011;3145;42.726;23.342;2023-03-16T01:16:25;3.70;;;3.60;;
6223;SDS011;3145;42.726;23.342;2023-03-16T01:18:54;4.40;;;4.20;;
6223;SDS011;3145;42.726;23.342;2023-03-16T01:21:21;4.27;;;4.07;;
6223;SDS011;3145;42.726;23.342;2023-03-16T01:23:48;3.23;;;3.13;;
6223;SDS011;3145;42.726;23.342;2023-03-16T01:26:17;3.37;;;3.27;;
6223;SDS011;3145;42.726;23.342;2023-03-16T01:28:45;4.00;;;3.90;;
6223;SDS011;3145;42.726;23.342;2023-03-16T01:31:12;4.77;;;4.37;;
6223;SDS011;3145;42.726;23.342;2023-03-16T01:33:40;3.77;;;3.60;;
6223;SDS011;3145;42.726;23.342;2023-03-16T01:36:09;4.70;;;4.40;;
6223;SDS011;3145;42.726;23.342;2023-03-16T01:38:38;4.40;;;4.20;;
6223;SDS011;3145;42.726;23.342;2023-03-16T01:41:06;3.90;;;3.70;;
6223;SDS011;3145;42.726;23.342;2023-03-16T01:43:33;3.40;;;3.30;;
6223;SDS011;3145;42.726;23.342;2023-03-16T01:48:50;3.60;;;3.50;;
6223;SDS011;3145;42.726;23.342;2023-03-16T01:51:26;4.40;;;4.10;;
6223;SDS011;3145;42.726;23.342;2023-03-16T01:53:57;3.83;;;3.63;;
6223;SDS011;3145;42.726;23.342;2023-03-16T01:56:29;3.93;;;3.73;;
6223;SDS011;3145;42.726;23.342;2023-03-16T01:58:59;3.50;;;3.40;;
6223;SDS011;3145;42.726;23.342;2023-03-16T02:01:31;3.60;;;3.50;;
6223;SDS011;3145;42.726;23.342;2023-03-16T02:04:00;3.77;;;3.57;;
6223;SDS011;3145;42.726;23.342;2023-03-16T02:06:34;4.10;;;4.00;;
6223;SDS011;3145;42.726;23.342;2023-03-16T02:09:02;3.80;;;3.70;;
6223;SDS011;3145;42.726;23.342;2023-03-16T02:11:30;3.97;;;3.73;;
6223;SDS011;3145;42.726;23.342;2023-03-16T02:13:59;4.50;;;4.30;;
6223;SDS011;3145;42.726;23.342;2023-03-16T02:16:31;4.30;;;4.10;;
6223;SDS011;3145;42.726;23.342;2023-03-16T02:18:58;3.50;;;3.40;;
6223;SDS011;3145;42.726;23.342;2023-03-16T02:21:26;4.03;;;3.67;;
6223;SDS011;3145;42.726;23.342;2023-03-16T02:24:00;4.00;;;3.90;;
6223;SDS011;3145;42.726;23.342;2023-03-16T02:26:30;4.30;;;4.13;;
6223;SDS011;3145;42.726;23.342;2023-03-16T02:29:07;4.10;;;4.00;;
6223;SDS011;3145;42.726;23.342;2023-03-16T02:31:44;3.97;;;3.80;;
6223;SDS011;3145;42.726;23.342;2023-03-16T02:34:11;3.50;;;3.40;;
6223;SDS011;3145;42.726;23.342;2023-03-16T02:36:40;4.40;;;4.20;;
6223;SDS011;3145;42.726;23.342;2023-03-16T02:39:10;4.03;;;3.93;;
6223;SDS011;3145;42.726;23.342;2023-03-16T02:41:37;3.70;;;3.60;;
6223;SDS011;3145;42.726;23.342;2023-03-16T02:44:06;5.03;;;4.50;;
6223;SDS011;3145;42.726;23.342;2023-03-16T02:46:39;4.43;;;4.23;;
6223;SDS011;3145;42.726;23.342;2023-03-16T02:49:11;3.40;;;3.30;;
6223;SDS011;3145;42.726;23.342;2023-03-16T02:51:41;4.50;;;4.30;;
6223;SDS011;3145;42.726;23.342;2023-03-16T02:54:09;3.50;;;3.40;;
6223;SDS011;3145;42.726;23.342;2023-03-16T02:56:36;4.10;;;4.00;;
6223;SDS011;3145;42.726;23.342;2023-03-16T02:59:03;5.33;;;4.83;;
6223;SDS011;3145;42.726;23.342;2023-03-16T03:01:30;4.03;;;3.63;;
6223;SDS011;3145;42.726;23.342;2023-03-16T03:03:59;3.67;;;3.57;;
6223;SDS011;3145;42.726;23.342;2023-03-16T03:06:27;3.77;;;3.67;;
6223;SDS011;3145;42.726;23.342;2023-03-16T03:08:54;4.00;;;3.90;;
6223;SDS011;3145;42.726;23.342;2023-03-16T03:11:21;3.83;;;3.67;;
6223;SDS011;3145;42.726;23.342;2023-03-16T03:13:48;3.80;;;3.60;;
6223;SDS011;3145;42.726;23.342;2023-03-16T03:16:15;3.20;;;3.10;;
6223;SDS011;3145;42.726;23.342;2023-03-16T03:18:42;3.60;;;3.50;;
6223;SDS011;3145;42.726;23.342;2023-03-16T03:21:09;3.83;;;3.73;;
6223;SDS011;3145;42.726;23.342;2023-03-16T03:23:37;3.70;;;3.50;;
6223;SDS011;3145;42.726;23.342;2023-03-16T03:26:04;3.40;;;3.30;;
6223;SDS011;3145;42.726;23.342;2023-03-16T03:28:31;4.03;;;3.87;;
6223;SDS011;3145;42.726;23.342;2023-03-16T03:30:58;3.77;;;3.67;;
6223;SDS011;3145;42.726;23.342;2023-03-16T03:33:25;3.43;;;3.33;;
6223;SDS011;3145;42.726;23.342;2023-03-16T03:35:53;3.80;;;3.70;;
6223;SDS011;3145;42.726;23.342;2023-03-16T03:38:20;4.57;;;4.27;;
6223;SDS011;3145;42.726;23.342;2023-03-16T03:40:50;4.00;;;3.90;;
6223;SDS011;3145;42.726;23.342;2023-03-16T03:43:18;3.73;;;3.63;;
6223;SDS011;3145;42.726;23.342;2023-03-16T03:45:45;3.47;;;3.37;;
6223;SDS011;3145;42.726;23.342;2023-03-16T03:48:12;3.90;;;3.80;;
6223;SDS011;3145;42.726;23.342;2023-03-16T03:50:38;3.57;;;3.47;;
6223;SDS011;3145;42.726;23.342;2023-03-16T03:53:05;3.70;;;3.60;;
6223;SDS011;3145;42.726;23.342;2023-03-16T03:55:32;3.00;;;2.90;;
6223;SDS011;3145;42.726;23.342;2023-03-16T03:58:00;3.50;;;3.40;;
6223;SDS011;3145;42.726;23.342;2023-03-16T04:00:27;3.50;;;3.40;;
6223;SDS011;3145;42.726;23.342;2023-03-16T04:02:53;3.80;;;3.60;;
6223;SDS011;3145;42.726;23.342;2023-03-16T04:05:20;3.57;;;3.40;;
6223;SDS011;3145;42.726;23.342;2023-03-16T04:07:51;3.93;;;3.80;;
6223;SDS011;3145;42.726;23.342;2023-03-16T04:10:21;4.47;;;4.17;;
6223;SDS011;3145;42.726;23.342;2023-03-16T04:12:48;3.40;;;3.30;;
6223;SDS011;3145;42.726;23.342;2023-03-16T04:15:16;4.40;;;4.20;;
6223;SDS011;3145;42.726;23.342;2023-03-16T04:17:43;4.10;;;3.90;;
6223;SDS011;3145;42.726;23.342;2023-03-16T04:20:10;3.87;;;3.67;;
6223;SDS011;3145;42.726;23.342;2023-03-16T04:22:40;4.07;;;3.97;;
6223;SDS011;3145;42.726;23.342;2023-03-16T04:25:10;5.00;;;4.80;;
6223;SDS011;3145;42.726;23.342;2023-03-16T04:27:38;3.60;;;3.50;;
6223;SDS011;3145;42.726;23.342;2023-03-16T04:30:06;3.70;;;3.57;;
6223;SDS011;3145;42.726;23.342;2023-03-16T04:32:37;3.37;;;3.27;;
6223;SDS011;3145;42.726;23.342;2023-03-16T04:35:05;4.77;;;4.57;;
6223;SDS011;3145;42.726;23.342;2023-03-16T04:37:33;4.43;;;4.27;;
6223;SDS011;3145;42.726;23.342;2023-03-16T04:40:00;5.50;;;5.10;;
6223;SDS011;3145;42.726;23.342;2023-03-16T04:42:33;3.80;;;3.60;;
6223;SDS011;3145;42.726;23.342;2023-03-16T04:45:01;3.50;;;3.40;;
6223;SDS011;3145;42.726;23.342;2023-03-16T04:47:27;3.73;;;3.63;;
6223;SDS011;3145;42.726;23.342;2023-03-16T04:49:59;3.80;;;3.60;;
6223;SDS011;3145;42.726;23.342;2023-03-16T04:52:26;3.90;;;3.70;;
6223;SDS011;3145;42.726;23.342;2023-03-16T04:54:53;3.70;;;3.60;;
6223;SDS011;3145;42.726;23.342;2023-03-16T04:57:20;3.53;;;3.33;;
6223;SDS011;3145;42.726;23.342;2023-03-16T04:59:47;4.60;;;4.40;;
6223;SDS011;3145;42.726;23.342;2023-03-16T05:02:14;5.97;;;4.00;;
6223;SDS011;3145;42.726;23.342;2023-03-16T05:04:41;5.60;;;5.30;;
6223;SDS011;3145;42.726;23.342;2023-03-16T05:07:09;4.63;;;4.43;;
6223;SDS011;3145;42.726;23.342;2023-03-16T05:09:36;5.70;;;5.40;;
6223;SDS011;3145;42.726;23.342;2023-03-16T05:12:03;4.47;;;4.27;;
6223;SDS011;3145;42.726;23.342;2023-03-16T05:14:29;3.70;;;3.60;;
6223;SDS011;3145;42.726;23.342;2023-03-16T05:16:56;4.30;;;4.10;;
6223;SDS011;3145;42.726;23.342;2023-03-16T05:19:23;4.50;;;4.30;;
6223;SDS011;3145;42.726;23.342;2023-03-16T05:21:50;4.47;;;4.13;;
6223;SDS011;3145;42.726;23.342;2023-03-16T05:24:18;4.33;;;4.13;;
6223;SDS011;3145;42.726;23.342;2023-03-16T05:26:45;4.20;;;4.00;;
6223;SDS011;3145;42.726;23.342;2023-03-16T05:29:11;4.43;;;4.23;;
6223;SDS011;3145;42.726;23.342;2023-03-16T05:31:38;4.63;;;4.43;;
6223;SDS011;3145;42.726;23.342;2023-03-16T05:34:05;5.00;;;4.80;;
6223;SDS011;3145;42.726;23.342;2023-03-16T05:36:32;4.97;;;4.67;;
6223;SDS011;3145;42.726;23.342;2023-03-16T05:39:00;5.10;;;4.80;;
6223;SDS011;3145;42.726;23.342;2023-03-16T05:41:28;6.43;;;6.00;;
6223;SDS011;3145;42.726;23.342;2023-03-16T05:43:54;5.33;;;4.87;;
6223;SDS011;3145;42.726;23.342;2023-03-16T05:46:21;6.03;;;5.73;;
6223;SDS011;3145;42.726;23.342;2023-03-16T05:48:48;6.50;;;6.00;;
6223;SDS011;3145;42.726;23.342;2023-03-16T05:51:14;4.57;;;4.37;;
6223;SDS011;3145;42.726;23.342;2023-03-16T05:53:42;5.50;;;5.20;;
6223;SDS011;3145;42.726;23.342;2023-03-16T05:56:10;5.37;;;5.07;;
6223;SDS011;3145;42.726;23.342;2023-03-16T05:58:39;6.50;;;6.10;;
6223;SDS011;3145;42.726;23.342;2023-03-16T06:01:06;5.77;;;5.37;;
6223;SDS011;3145;42.726;23.342;2023-03-16T06:03:33;6.20;;;5.80;;
6223;SDS011;3145;42.726;23.342;2023-03-16T06:06:00;6.23;;;5.77;;
6223;SDS011;3145;42.726;23.342;2023-03-16T06:08:27;5.97;;;5.40;;
6223;SDS011;3145;42.726;23.342;2023-03-16T06:10:54;5.00;;;4.70;;
6223;SDS011;3145;42.726;23.342;2023-03-16T06:13:20;4.80;;;4.53;;
6223;SDS011;3145;42.726;23.342;2023-03-16T06:15:49;5.30;;;4.97;;
6223;SDS011;3145;42.726;23.342;2023-03-16T06:18:16;5.90;;;5.50;;
6223;SDS011;3145;42.726;23.342;2023-03-16T06:20:42;5.43;;;5.13;;
6223;SDS011;3145;42.726;23.342;2023-03-16T06:23:11;5.03;;;4.73;;
6223;SDS011;3145;42.726;23.342;2023-03-16T06:25:38;6.43;;;5.93;;
6223;SDS011;3145;42.726;23.342;2023-03-16T06:28:05;5.63;;;5.33;;
6223;SDS011;3145;42.726;23.342;2023-03-16T06:30:32;7.03;;;6.53;;
6223;SDS011;3145;42.726;23.342;2023-03-16T06:33:00;37.63;;;28.87;;
6223;SDS011;3145;42.726;23.342;2023-03-16T06:35:27;4.87;;;4.50;;
6223;SDS011;3145;42.726;23.342;2023-03-16T06:37:54;4.70;;;4.40;;
6223;SDS011;3145;42.726;23.342;2023-03-16T06:40:20;5.17;;;4.83;;
6223;SDS011;3145;42.726;23.342;2023-03-16T06:42:47;4.43;;;4.23;;
6223;SDS011;3145;42.726;23.342;2023-03-16T06:45:14;5.33;;;5.03;;
6223;SDS011;3145;42.726;23.342;2023-03-16T06:47:41;7.00;;;6.40;;
6223;SDS011;3145;42.726;23.342;2023-03-16T06:50:10;7.80;;;7.10;;
6223;SDS011;3145;42.726;23.342;2023-03-16T06:52:37;7.83;;;7.17;;
6223;SDS011;3145;42.726;23.342;2023-03-16T06:55:04;10.63;;;8.37;;
6223;SDS011;3145;42.726;23.342;2023-03-16T06:57:31;9.37;;;8.50;;
6223;SDS011;3145;42.726;23.342;2023-03-16T06:59:58;8.83;;;8.03;;
6223;SDS011;3145;42.726;23.342;2023-03-16T07:02:27;7.60;;;7.20;;
6223;SDS011;3145;42.726;23.342;2023-03-16T07:04:54;6.93;;;6.53;;
6223;SDS011;3145;42.726;23.342;2023-03-16T07:07:22;6.00;;;5.60;;
6223;SDS011;3145;42.726;23.342;2023-03-16T07:09:48;5.57;;;5.27;;
6223;SDS011;3145;42.726;23.342;2023-03-16T07:12:15;6.50;;;6.10;;
6223;SDS011;3145;42.726;23.342;2023-03-16T07:14:42;6.20;;;5.67;;
6223;SDS011;3145;42.726;23.342;2023-03-16T07:17:09;7.30;;;6.70;;
6223;SDS011;3145;42.726;23.342;2023-03-16T07:19:35;8.40;;;7.73;;
6223;SDS011;3145;42.726;23.342;2023-03-16T07:22:02;6.93;;;6.43;;
6223;SDS011;3145;42.726;23.342;2023-03-16T07:24:30;7.90;;;7.30;;
6223;SDS011;3145;42.726;23.342;2023-03-16T07:26:57;6.60;;;6.13;;
6223;SDS011;3145;42.726;23.342;2023-03-16T07:29:24;9.17;;;8.27;;
6223;SDS011;3145;42.726;23.342;2023-03-16T07:31:51;8.73;;;7.93;;
6223;SDS011;3145;42.726;23.342;2023-03-16T07:34:18;7.20;;;6.70;;
6223;SDS011;3145;42.726;23.342;2023-03-16T07:36:45;7.20;;;6.50;;
6223;SDS011;3145;42.726;23.342;2023-03-16T07:39:12;7.90;;;7.23;;
6223;SDS011;3145;42.726;23.342;2023-03-16T07:41:43;9.67;;;8.57;;
6223;SDS011;3145;42.726;23.342;2023-03-16T07:44:09;7.60;;;6.90;;
6223;SDS011;3145;42.726;23.342;2023-03-16T07:46:36;9.50;;;8.70;;
6223;SDS011;3145;42.726;23.342;2023-03-16T07:49:03;12.47;;;10.40;;
6223;SDS011;3145;42.726;23.342;2023-03-16T07:51:30;9.20;;;8.40;;
6223;SDS011;3145;42.726;23.342;2023-03-16T07:53:57;7.83;;;7.23;;
6223;SDS011;3145;42.726;23.342;2023-03-16T07:56:23;8.10;;;7.47;;
6223;SDS011;3145;42.726;23.342;2023-03-16T07:58:51;6.33;;;5.83;;
6223;SDS011;3145;42.726;23.342;2023-03-16T08:01:18;6.83;;;6.37;;
6223;SDS011;3145;42.726;23.342;2023-03-16T08:03:46;10.17;;;8.60;;
6223;SDS011;3145;42.726;23.342;2023-03-16T08:06:13;6.40;;;6.00;;
6223;SDS011;3145;42.726;23.342;2023-03-16T08:08:40;11.07;;;8.37;;
6223;SDS011;3145;42.726;23.342;2023-03-16T08:11:07;8.10;;;7.50;;
6223;SDS011;3145;42.726;23.342;2023-03-16T08:13:33;7.93;;;7.33;;
6223;SDS011;3145;42.726;23.342;2023-03-16T08:16:02;6.37;;;5.77;;
6223;SDS011;3145;42.726;23.342;2023-03-16T08:18:34;5.50;;;5.00;;
6223;SDS011;3145;42.726;23.342;2023-03-16T08:21:01;4.80;;;4.50;;
6223;SDS011;3145;42.726;23.342;2023-03-16T08:23:28;6.53;;;5.90;;
6223;SDS011;3145;42.726;23.342;2023-03-16T08:25:57;8.10;;;7.27;;
6223;SDS011;3145;42.726;23.342;2023-03-16T08:28:25;7.40;;;6.90;;
6223;SDS011;3145;42.726;23.342;2023-03-16T08:30:52;7.10;;;6.50;;
6223;SDS011;3145;42.726;23.342;2023-03-16T08:33:20;4.97;;;4.57;;
6223;SDS011;3145;42.726;23.342;2023-03-16T08:35:48;6.10;;;5.70;;
6223;SDS011;3145;42.726;23.342;2023-03-16T08:38:14;7.00;;;6.23;;
6223;SDS011;3145;42.726;23.342;2023-03-16T08:40:41;5.83;;;5.37;;
6223;SDS011;3145;42.726;23.342;2023-03-16T08:43:12;7.17;;;6.67;;
6223;SDS011;3145;42.726;23.342;2023-03-16T08:45:39;8.97;;;8.23;;
6223;SDS011;3145;42.726;23.342;2023-03-16T08:48:07;10.70;;;8.67;;
6223;SDS011;3145;42.726;23.342;2023-03-16T08:50:39;12.70;;;10.07;;
6223;SDS011;3145;42.726;23.342;2023-03-16T08:53:07;7.80;;;7.20;;
6223;SDS011;3145;42.726;23.342;2023-03-16T08:55:34;10.93;;;9.63;;
6223;SDS011;3145;42.726;23.342;2023-03-16T08:58:02;13.93;;;8.67;;
6223;SDS011;3145;42.726;23.342;2023-03-16T09:00:29;7.80;;;7.13;;
6223;SDS011;3145;42.726;23.342;2023-03-16T09:02:55;9.00;;;8.27;;
6223;SDS011;3145;42.726;23.342;2023-03-16T09:05:23;7.47;;;6.80;;
6223;SDS011;3145;42.726;23.342;2023-03-16T09:07:51;9.37;;;8.43;;
6223;SDS011;3145;42.726;23.342;2023-03-16T09:10:18;9.90;;;8.07;;
6223;SDS011;3145;42.726;23.342;2023-03-16T09:12:47;8.07;;;7.20;;
6223;SDS011;3145;42.726;23.342;2023-03-16T09:15:16;9.30;;;8.60;;
6223;SDS011;3145;42.726;23.342;2023-03-16T09:17:44;8.37;;;7.70;;
6223;SDS011;3145;42.726;23.342;2023-03-16T09:20:11;7.30;;;6.67;;
6223;SDS011;3145;42.726;23.342;2023-03-16T09:22:40;6.47;;;5.93;;
6223;SDS011;3145;42.726;23.342;2023-03-16T09:25:09;6.33;;;5.73;;
6223;SDS011;3145;42.726;23.342;2023-03-16T09:27:35;8.50;;;7.93;;
6223;SDS011;3145;42.726;23.342;2023-03-16T09:30:02;7.80;;;7.20;;
6223;SDS011;3145;42.726;23.342;2023-03-16T09:32:30;8.37;;;7.77;;
6223;SDS011;3145;42.726;23.342;2023-03-16T09:34:57;8.80;;;5.00;;
6223;SDS011;3145;42.726;23.342;2023-03-16T09:37:24;6.03;;;5.70;;
6223;SDS011;3145;42.726;23.342;2023-03-16T09:39:51;8.10;;;6.63;;
6223;SDS011;3145;42.726;23.342;2023-03-16T09:42:21;9.50;;;8.80;;
6223;SDS011;3145;42.726;23.342;2023-03-16T09:45:00;8.17;;;7.47;;
6223;SDS011;3145;42.726;23.342;2023-03-16T09:47:34;8.60;;;7.63;;
6223;SDS011;3145;42.726;23.342;2023-03-16T09:50:03;9.03;;;8.10;;
6223;SDS011;3145;42.726;23.342;2023-03-16T09:52:34;6.10;;;5.70;;
6223;SDS011;3145;42.726;23.342;2023-03-16T09:55:11;12.23;;;10.77;;
6223;SDS011;3145;42.726;23.342;2023-03-16T09:57:49;10.73;;;9.73;;
6223;SDS011;3145;42.726;23.342;2023-03-16T10:00:18;6.90;;;6.40;;
6223;SDS011;3145;42.726;23.342;2023-03-16T10:05:42;6.63;;;6.07;;
6223;SDS011;3145;42.726;23.342;2023-03-16T10:08:12;6.27;;;5.83;;
6223;SDS011;3145;42.726;23.342;2023-03-16T10:10:44;9.33;;;8.60;;
6223;SDS011;3145;42.726;23.342;2023-03-16T10:13:33;8.90;;;8.10;;
6223;SDS011;3145;42.726;23.342;2023-03-16T10:16:05;8.60;;;7.80;;
6223;SDS011;3145;42.726;23.342;2023-03-16T10:18:38;9.20;;;8.40;;
6223;SDS011;3145;42.726;23.342;2023-03-16T10:21:10;10.07;;;9.17;;
6223;SDS011;3145;42.726;23.342;2023-03-16T10:23:38;9.93;;;8.97;;
6223;SDS011;3145;42.726;23.342;2023-03-16T10:26:09;10.00;;;9.13;;
6223;SDS011;3145;42.726;23.342;2023-03-16T10:28:40;8.50;;;7.77;;
6223;SDS011;3145;42.726;23.342;2023-03-16T10:31:09;7.63;;;7.10;;
6223;SDS011;3145;42.726;23.342;2023-03-16T10:33:38;8.67;;;8.07;;
6223;SDS011;3145;42.726;23.342;2023-03-16T10:36:09;10.40;;;9.40;;
6223;SDS011;3145;42.726;23.342;2023-03-16T10:38:40;9.80;;;9.00;;
6223;SDS011;3145;42.726;23.342;2023-03-16T10:41:21;8.63;;;7.73;;
6223;SDS011;3145;42.726;23.342;2023-03-16T10:43:52;7.80;;;7.03;;
6223;SDS011;3145;42.726;23.342;2023-03-16T10:46:21;7.93;;;7.23;;
6223;SDS011;3145;42.726;23.342;2023-03-16T10:48:52;6.50;;;5.90;;
6223;SDS011;3145;42.726;23.342;2023-03-16T10:51:24;6.97;;;6.47;;
6223;SDS011;3145;42.726;23.342;2023-03-16T10:53:55;7.13;;;6.47;;
6223;SDS011;3145;42.726;23.342;2023-03-16T10:56:23;7.20;;;6.70;;
6223;SDS011;3145;42.726;23.342;2023-03-16T10:58:53;6.73;;;6.23;;
6223;SDS011;3145;42.726;23.342;2023-03-16T11:01:21;8.07;;;7.47;;
6223;SDS011;3145;42.726;23.342;2023-03-16T11:03:51;6.77;;;6.03;;
6223;SDS011;3145;42.726;23.342;2023-03-16T11:06:21;7.47;;;6.90;;
6223;SDS011;3145;42.726;23.342;2023-03-16T11:08:50;10.57;;;9.67;;
6223;SDS011;3145;42.726;23.342;2023-03-16T11:11:20;14.67;;;13.07;;
6223;SDS011;3145;42.726;23.342;2023-03-16T11:13:56;7.37;;;6.67;;
6223;SDS011;3145;42.726;23.342;2023-03-16T11:16:26;8.87;;;8.03;;
6223;SDS011;3145;42.726;23.342;2023-03-16T11:18:57;7.50;;;7.00;;
6223;SDS011;3145;42.726;23.342;2023-03-16T11:21:33;8.57;;;7.97;;
6223;SDS011;3145;42.726;23.342;2023-03-16T11:24:09;8.97;;;7.33;;
6223;SDS011;3145;42.726;23.342;2023-03-16T11:26:42;7.20;;;6.60;;
6223;SDS011;3145;42.726;23.342;2023-03-16T11:29:15;11.83;;;10.40;;
6223;SDS011;3145;42.726;23.342;2023-03-16T11:31:48;12.47;;;9.73;;
6223;SDS011;3145;42.726;23.342;2023-03-16T11:34:21;9.40;;;8.53;;
6223;SDS011;3145;42.726;23.342;2023-03-16T11:36:53;12.87;;;8.63;;
6223;SDS011;3145;42.726;23.342;2023-03-16T11:39:31;10.10;;;9.10;;
6223;SDS011;3145;42.726;23.342;2023-03-16T11:44:56;10.27;;;8.97;;
6223;SDS011;3145;42.726;23.342;2023-03-16T11:47:33;10.97;;;9.90;;
6223;SDS011;3145;42.726;23.342;2023-03-16T11:50:12;12.90;;;11.80;;
6223;SDS011;3145;42.726;23.342;2023-03-16T11:52:49;8.30;;;7.63;;
6223;SDS011;3145;42.726;23.342;2023-03-16T11:55:27;10.33;;;9.33;;
6223;SDS011;3145;42.726;23.342;2023-03-16T11:58:08;11.30;;;9.83;;
6223;SDS011;3145;42.726;23.342;2023-03-16T12:00:50;7.07;;;6.57;;
6223;SDS011;3145;42.726;23.342;2023-03-16T12:03:35;7.50;;;6.90;;
6223;SDS011;3145;42.726;23.342;2023-03-16T12:06:22;9.30;;;8.47;;
6223;SDS011;3145;42.726;23.342;2023-03-16T12:09:00;12.30;;;10.27;;
6223;SDS011;3145;42.726;23.342;2023-03-16T12:11:39;11.97;;;10.97;;
6223;SDS011;3145;42.726;23.342;2023-03-16T12:14:13;9.43;;;8.53;;
6223;SDS011;3145;42.726;23.342;2023-03-16T12:16:47;12.00;;;10.27;;
6223;SDS011;3145;42.726;23.342;2023-03-16T12:19:20;12.87;;;11.57;;
6223;SDS011;3145;42.726;23.342;2023-03-16T12:21:56;14.63;;;12.10;;
6223;SDS011;3145;42.726;23.342;2023-03-16T12:24:38;15.37;;;13.80;;
6223;SDS011;3145;42.726;23.342;2023-03-16T12:27:10;12.60;;;11.43;;
6223;SDS011;3145;42.726;23.342;2023-03-16T12:29:43;13.57;;;12.13;;
6223;SDS011;3145;42.726;23.342;2023-03-16T12:32:24;20.00;;;12.87;;
6223;SDS011;3145;42.726;23.342;2023-03-16T12:35:03;13.07;;;11.80;;
6223;SDS011;3145;42.726;23.342;2023-03-16T12:37:43;13.90;;;12.40;;
6223;SDS011;3145;42.726;23.342;2023-03-16T12:40:21;12.30;;;10.37;;
6223;SDS011;3145;42.726;23.342;2023-03-16T12:42:59;17.50;;;15.73;;
6223;SDS011;3145;42.726;23.342;2023-03-16T12:45:38;12.60;;;11.30;;
6223;SDS011;3145;42.726;23.342;2023-03-16T12:48:17;14.63;;;13.13;;
6223;SDS011;3145;42.726;23.342;2023-03-16T12:50:52;11.23;;;10.10;;
6223;SDS011;3145;42.726;23.342;2023-03-16T12:53:28;10.00;;;9.07;;
6223;SDS011;3145;42.726;23.342;2023-03-16T12:56:06;10.03;;;9.13;;
6223;SDS011;3145;42.726;23.342;2023-03-16T12:58:38;13.27;;;11.97;;
6223;SDS011;3145;42.726;23.342;2023-03-16T13:01:08;10.33;;;9.50;;
6223;SDS011;3145;42.726;23.342;2023-03-16T13:03:38;9.47;;;8.67;;
6223;SDS011;3145;42.726;23.342;2023-03-16T13:06:06;11.90;;;10.70;;
6223;SDS011;3145;42.726;23.342;2023-03-16T13:08:45;12.70;;;11.60;;
6223;SDS011;3145;42.726;23.342;2023-03-16T13:11:15;13.17;;;11.87;;
6223;SDS011;3145;42.726;23.342;2023-03-16T13:13:49;13.63;;;12.40;;
6223;SDS011;3145;42.726;23.342;2023-03-16T13:16:25;15.93;;;12.90;;
6223;SDS011;3145;42.726;23.342;2023-03-16T13:18:54;16.73;;;14.00;;
6223;SDS011;3145;42.726;23.342;2023-03-16T13:21:33;13.97;;;12.47;;
6223;SDS011;3145;42.726;23.342;2023-03-16T13:24:12;11.30;;;10.13;;
6223;SDS011;3145;42.726;23.342;2023-03-16T13:26:47;14.17;;;10.70;;
6223;SDS011;3145;42.726;23.342;2023-03-16T13:29:20;16.47;;;13.33;;
6223;SDS011;3145;42.726;23.342;2023-03-16T13:31:50;12.70;;;11.43;;
6223;SDS011;3145;42.726;23.342;2023-03-16T13:34:20;13.20;;;11.90;;
6223;SDS011;3145;42.726;23.342;2023-03-16T13:36:48;13.00;;;11.67;;
6223;SDS011;3145;42.726;23.342;2023-03-16T13:39:21;9.80;;;9.10;;
6223;SDS011;3145;42.726;23.342;2023-03-16T13:41:58;11.33;;;10.23;;
6223;SDS011;3145;42.726;23.342;2023-03-16T13:44:28;15.37;;;13.70;;
6223;SDS011;3145;42.726;23.342;2023-03-16T13:46:55;13.87;;;12.47;;
6223;SDS011;3145;42.726;23.342;2023-03-16T13:49:23;13.07;;;11.77;;
6223;SDS011;3145;42.726;23.342;2023-03-16T13:51:50;14.23;;;12.07;;
6223;SDS011;3145;42.726;23.342;2023-03-16T13:54:19;13.10;;;11.90;;
6223;SDS011;3145;42.726;23.342;2023-03-16T13:56:49;20.00;;;13.90;;
6223;SDS011;3145;42.726;23.342;2023-03-16T13:59:16;15.13;;;13.63;;
6223;SDS011;3145;42.726;23.342;2023-03-16T14:01:44;18.03;;;15.83;;
6223;SDS011;3145;42.726;23.342;2023-03-16T14:04:12;16.53;;;13.67;;
6223;SDS011;3145;42.726;23.342;2023-03-16T14:06:51;20.07;;;15.03;;
6223;SDS011;3145;42.726;23.342;2023-03-16T14:09:20;20.03;;;14.23;;
6223;SDS011;3145;42.726;23.342;2023-03-16T14:11:51;15.70;;;12.87;;
6223;SDS011;3145;42.726;23.342;2023-03-16T14:14:22;21.57;;;16.33;;
6223;SDS011;3145;42.726;23.342;2023-03-16T14:16:50;19.30;;;15.40;;
6223;SDS011;3145;42.726;23.342;2023-03-16T14:19:19;15.43;;;12.77;;
6223;SDS011;3145;42.726;23.342;2023-03-16T14:21:53;20.03;;;17.13;;
6223;SDS011;3145;42.726;23.342;2023-03-16T14:24:27;21.30;;;16.40;;
6223;SDS011;3145;42.726;23.342;2023-03-16T14:26:56;14.37;;;12.80;;
6223;SDS011;3145;42.726;23.342;2023-03-16T14:29:34;18.13;;;15.70;;
6223;SDS011;3145;42.726;23.342;2023-03-16T14:32:01;22.70;;;17.63;;
6223;SDS011;3145;42.726;23.342;2023-03-16T14:34:29;22.43;;;15.97;;
6223;SDS011;3145;42.726;23.342;2023-03-16T14:37:05;22.53;;;17.30;;
6223;SDS011;3145;42.726;23.342;2023-03-16T14:39:32;14.90;;;13.40;;
6223;SDS011;3145;42.726;23.342;2023-03-16T14:42:01;18.27;;;15.77;;
6223;SDS011;3145;42.726;23.342;2023-03-16T14:44:29;18.80;;;16.17;;
6223;SDS011;3145;42.726;23.342;2023-03-16T14:46:59;17.57;;;15.70;;
6223;SDS011;3145;42.726;23.342;2023-03-16T14:49:29;21.80;;;16.33;;
6223;SDS011;3145;42.726;23.342;2023-03-16T14:51:58;22.23;;;16.13;;
6223;SDS011;3145;42.726;23.342;2023-03-16T14:54:29;21.10;;;15.27;;
6223;SDS011;3145;42.726;23.342;2023-03-16T14:56:58;26.13;;;18.53;;
6223;SDS011;3145;42.726;23.342;2023-03-16T14:59:26;26.13;;;19.83;;
6223;SDS011;3145;42.726;23.342;2023-03-16T15:01:53;23.53;;;16.73;;
6223;SDS011;3145;42.726;23.342;2023-03-16T15:04:22;16.83;;;15.10;;
6223;SDS011;3145;42.726;23.342;2023-03-16T15:06:52;19.67;;;15.87;;
6223;SDS011;3145;42.726;23.342;2023-03-16T15:12:10;19.23;;;16.47;;
6223;SDS011;3145;42.726;23.342;2023-03-16T15:14:39;20.00;;;16.47;;
6223;SDS011;3145;42.726;23.342;2023-03-16T15:17:23;18.20;;;14.27;;
6223;SDS011;3145;42.726;23.342;2023-03-16T15:19:51;17.57;;;14.00;;
6223;SDS011;3145;42.726;23.342;2023-03-16T15:22:19;21.53;;;16.63;;